createdAt,value
2019-02-15T00:00:14.790Z,83.40
2019-02-15T00:01:14.760Z,83.92
2019-02-15T00:02:14.761Z,84.44
2019-02-15T00:03:14.733Z,83.92
2019-02-15T00:04:14.731Z,84.02
2019-02-15T00:05:14.741Z,84.55
2019-02-15T00:06:14.705Z,84.55
2019-02-15T00:07:14.689Z,84.61
2019-02-15T00:08:14.680Z,84.50
2019-02-15T00:09:14.673Z,84.30
2019-02-15T00:10:14.714Z,83.57
2019-02-15T00:11:14.648Z,83.98
2019-02-15T00:12:14.649Z,83.88
2019-02-15T00:13:14.633Z,83.36
2019-02-15T00:14:14.617Z,83.88
2019-02-15T00:15:14.626Z,83.67
2019-02-15T00:16:14.604Z,83.57
2019-02-15T00:17:14.587Z,84.19
2019-02-15T00:18:14.630Z,84.09
2019-02-15T00:19:14.573Z,84.67
2019-02-15T00:20:14.602Z,84.67
2019-02-15T00:21:14.565Z,84.57
2019-02-15T00:22:14.544Z,84.88
2019-02-15T00:23:14.524Z,84.78
2019-02-15T00:24:14.513Z,84.78
2019-02-15T00:25:14.539Z,84.36
2019-02-15T00:26:16.443Z,83.53
2019-02-15T00:27:14.485Z,83.01
2019-02-15T00:28:14.471Z,82.80
2019-02-15T00:29:14.459Z,82.73
2019-02-15T00:30:14.451Z,83.01
2019-02-15T00:31:14.476Z,82.70
2019-02-15T00:32:14.432Z,83.01
2019-02-15T00:33:14.420Z,82.80
2019-02-15T00:34:14.409Z,82.42
2019-02-15T00:35:14.405Z,82.59
2019-02-15T00:36:14.413Z,82.90
2019-02-15T00:37:14.394Z,83.25
2019-02-15T00:38:14.374Z,83.47
2019-02-15T00:39:14.410Z,84.09
2019-02-15T00:40:14.352Z,83.47
2019-02-15T00:41:14.410Z,83.36
2019-02-15T00:42:14.330Z,82.94
2019-02-15T00:43:22.078Z,83.15
2019-02-15T00:44:15.369Z,83.22
2019-02-15T00:45:21.839Z,83.04
2019-02-15T00:46:14.326Z,83.36
2019-02-15T00:47:21.822Z,82.80
2019-02-15T00:48:14.271Z,82.90
2019-02-15T00:49:21.813Z,83.15
2019-02-15T00:50:14.250Z,82.90
2019-02-15T00:51:14.251Z,83.11
2019-02-15T00:52:14.242Z,83.15
2019-02-15T00:53:14.206Z,83.57
2019-02-15T00:54:14.212Z,83.88
2019-02-15T00:55:21.762Z,83.36
2019-02-15T00:56:14.199Z,82.84
2019-02-15T00:57:21.761Z,82.94
2019-02-15T00:58:14.197Z,83.04
2019-02-15T00:59:21.686Z,83.04
2019-02-15T01:00:14.167Z,83.04
2019-02-15T01:01:14.137Z,83.57
2019-02-15T01:02:14.189Z,83.04
2019-02-15T01:03:14.120Z,83.36
2019-02-15T01:04:14.096Z,83.15
2019-02-15T01:05:14.190Z,83.15
2019-02-15T01:06:14.191Z,83.25
2019-02-15T01:07:14.111Z,83.36
2019-02-15T01:08:14.076Z,83.78
2019-02-15T01:09:14.047Z,84.19
2019-02-15T01:10:14.044Z,83.88
2019-02-15T01:11:14.034Z,84.30
2019-02-15T01:12:14.062Z,84.50
2019-02-15T01:13:14.037Z,84.40
2019-02-15T01:14:13.990Z,84.30
2019-02-15T01:15:13.981Z,83.57
2019-02-15T01:16:13.972Z,84.26
2019-02-15T01:17:21.554Z,83.84
2019-02-15T01:18:13.988Z,83.53
2019-02-15T01:19:21.537Z,82.48
2019-02-15T01:20:13.969Z,84.05
2019-02-15T01:21:14.020Z,83.22
2019-02-15T01:22:13.914Z,83.63
2019-02-15T01:23:13.937Z,83.53
2019-02-15T01:24:21.449Z,82.80
2019-02-15T01:25:13.899Z,82.07
2019-02-15T01:26:13.908Z,82.17
2019-02-15T01:27:21.404Z,82.28
2019-02-15T01:28:13.929Z,81.86
2019-02-15T01:29:21.419Z,82.17
2019-02-15T01:30:13.872Z,81.96
2019-02-15T01:31:21.438Z,81.65
2019-02-15T01:32:13.816Z,81.96
2019-02-15T01:33:21.390Z,82.38
2019-02-15T01:34:13.813Z,82.48
2019-02-15T01:35:21.411Z,82.53
2019-02-15T01:36:13.836Z,82.07
2019-02-15T01:37:21.364Z,83.11
2019-02-15T01:38:13.844Z,84.16
2019-02-15T01:39:21.319Z,83.15
2019-02-15T01:40:13.744Z,83.22
2019-02-15T01:41:21.289Z,82.59
2019-02-15T01:42:13.758Z,82.42
2019-02-15T01:43:21.289Z,82.38
2019-02-15T01:44:13.712Z,82.28
2019-02-15T01:45:21.274Z,82.48
2019-02-15T01:46:13.686Z,81.96
2019-02-15T01:47:21.245Z,82.07
2019-02-15T01:48:13.708Z,81.96
2019-02-15T01:49:21.232Z,82.00
2019-02-15T01:50:13.642Z,81.86
2019-02-15T01:51:13.628Z,81.65
2019-02-15T01:52:13.605Z,82.10
2019-02-15T01:53:13.599Z,82.00
2019-02-15T01:54:13.609Z,82.07
2019-02-15T01:55:13.624Z,82.00
2019-02-15T01:56:13.670Z,82.10
2019-02-15T01:57:13.563Z,82.31
2019-02-15T01:58:13.542Z,82.31
2019-02-15T01:59:13.546Z,82.53
2019-02-15T02:00:21.142Z,82.53
2019-02-15T02:01:13.514Z,82.42
2019-02-15T02:02:21.061Z,82.63
2019-02-15T02:03:13.518Z,82.53
2019-02-15T02:04:13.495Z,82.31
2019-02-15T02:05:13.495Z,82.53
2019-02-15T02:06:21.031Z,82.31
2019-02-15T02:07:13.460Z,82.21
2019-02-15T02:08:21.057Z,82.04
2019-02-15T02:09:13.486Z,82.04
2019-02-15T02:10:20.980Z,82.10
2019-02-15T02:11:13.428Z,82.35
2019-02-15T02:12:13.464Z,82.25
2019-02-15T02:13:20.962Z,82.10
2019-02-15T02:14:13.450Z,81.93
2019-02-15T02:15:13.381Z,81.93
2019-02-15T02:16:13.389Z,81.52
2019-02-15T02:17:13.370Z,81.93
2019-02-15T02:18:20.910Z,82.25
2019-02-15T02:19:13.380Z,82.25
2019-02-15T02:20:13.376Z,82.56
2019-02-15T02:21:20.867Z,82.77
2019-02-15T02:22:13.380Z,82.81
2019-02-15T02:23:13.371Z,82.50
2019-02-15T02:24:13.344Z,82.70
2019-02-15T02:25:13.290Z,82.39
2019-02-15T02:26:13.259Z,82.18
2019-02-15T02:27:13.236Z,82.70
2019-02-15T02:28:13.229Z,82.81
2019-02-15T02:29:13.242Z,82.91
2019-02-15T02:30:13.228Z,82.50
2019-02-15T02:31:13.239Z,82.60
2019-02-15T02:32:13.196Z,82.70
2019-02-15T02:33:13.182Z,82.70
2019-02-15T02:34:13.200Z,82.50
2019-02-15T02:35:13.159Z,82.50
2019-02-15T02:36:13.152Z,82.81
2019-02-15T02:37:13.138Z,82.39
2019-02-15T02:38:13.133Z,82.29
2019-02-15T02:39:13.134Z,82.39
2019-02-15T02:40:13.109Z,82.39
2019-02-15T02:41:13.111Z,82.39
2019-02-15T02:42:13.094Z,82.29
2019-02-15T02:43:13.082Z,82.50
2019-02-15T02:44:13.083Z,82.43
2019-02-15T02:45:13.064Z,82.43
2019-02-15T02:46:13.045Z,82.60
2019-02-15T02:47:13.048Z,82.70
2019-02-15T02:48:13.034Z,82.74
2019-02-15T02:49:13.037Z,82.84
2019-02-15T02:50:13.009Z,82.64
2019-02-15T02:51:13.027Z,82.70
2019-02-15T02:52:12.979Z,82.53
2019-02-15T02:53:13.014Z,82.43
2019-02-15T02:54:12.985Z,82.81
2019-02-15T02:55:12.952Z,82.53
2019-02-15T02:56:12.953Z,82.53
2019-02-15T02:57:21.693Z,82.43
2019-02-15T02:58:14.715Z,82.43
2019-02-15T02:59:13.122Z,82.53
2019-02-15T03:00:12.905Z,82.43
2019-02-15T03:01:12.908Z,82.22
2019-02-15T03:02:12.933Z,82.43
2019-02-15T03:03:12.887Z,82.32
2019-02-15T03:04:12.920Z,82.32
2019-02-15T03:05:12.882Z,82.64
2019-02-15T03:06:12.922Z,82.32
2019-02-15T03:07:12.909Z,82.53
2019-02-15T03:08:12.873Z,82.53
2019-02-15T03:09:12.823Z,82.64
2019-02-15T03:10:12.819Z,82.64
2019-02-15T03:11:12.852Z,82.22
2019-02-15T03:12:12.826Z,82.64
2019-02-15T03:13:12.780Z,82.53
2019-02-15T03:14:12.766Z,82.32
2019-02-15T03:15:12.859Z,82.53
2019-02-15T03:16:12.743Z,82.46
2019-02-15T03:17:12.748Z,82.57
2019-02-15T03:18:12.789Z,82.64
2019-02-15T03:19:12.728Z,82.57
2019-02-15T03:20:12.752Z,82.22
2019-02-15T03:21:12.773Z,82.22
2019-02-15T03:22:12.709Z,82.57
2019-02-15T03:23:12.727Z,82.36
2019-02-15T03:24:12.667Z,82.15
2019-02-15T03:25:12.729Z,82.67
2019-02-15T03:26:12.640Z,82.36
2019-02-15T03:27:12.778Z,82.46
2019-02-15T03:28:12.653Z,82.78
2019-02-15T03:29:12.697Z,82.57
2019-02-15T03:30:12.710Z,82.57
2019-02-15T03:31:12.724Z,82.67
2019-02-15T03:32:12.625Z,82.26
2019-02-15T03:33:12.575Z,82.36
2019-02-15T03:34:12.814Z,82.57
2019-02-15T03:35:12.609Z,82.36
2019-02-15T03:36:12.530Z,82.78
2019-02-15T03:37:12.537Z,82.82
2019-02-15T03:38:12.579Z,83.09
2019-02-15T03:39:12.510Z,83.09
2019-02-15T03:40:12.496Z,83.09
2019-02-15T03:41:12.621Z,83.13
2019-02-15T03:42:12.552Z,83.20
2019-02-15T03:43:12.587Z,83.20
2019-02-15T03:44:21.912Z,83.20
2019-02-15T03:45:13.486Z,82.67
2019-02-15T03:46:12.486Z,82.78
2019-02-15T03:47:12.428Z,82.78
2019-02-15T03:48:12.438Z,83.20
2019-02-15T03:49:12.453Z,82.99
2019-02-15T03:50:12.404Z,83.23
2019-02-15T03:51:12.411Z,83.55
2019-02-15T03:52:12.431Z,83.40
2019-02-15T03:53:12.483Z,83.65
2019-02-15T03:54:12.432Z,83.09
2019-02-15T03:55:12.428Z,83.20
2019-02-15T03:56:12.377Z,83.30
2019-02-15T03:57:12.340Z,83.44
2019-02-15T03:58:12.404Z,83.30
2019-02-15T03:59:12.303Z,83.03
2019-02-15T04:00:12.402Z,83.30
2019-02-15T04:01:12.305Z,83.23
2019-02-15T04:02:12.332Z,83.62
2019-02-15T04:03:12.261Z,83.20
2019-02-15T04:04:12.247Z,83.20
2019-02-15T04:05:12.265Z,83.30
2019-02-15T04:06:12.227Z,83.62
2019-02-15T04:07:12.284Z,83.51
2019-02-15T04:08:12.240Z,83.09
2019-02-15T04:09:12.222Z,83.34
2019-02-15T04:10:12.313Z,83.34
2019-02-15T04:11:12.182Z,83.34
2019-02-15T04:12:12.290Z,83.55
2019-02-15T04:13:12.154Z,83.34
2019-02-15T04:14:12.161Z,83.23
2019-02-15T04:15:12.142Z,83.23
2019-02-15T04:16:12.145Z,83.34
2019-02-15T04:17:12.136Z,83.55
2019-02-15T04:18:12.124Z,83.65
2019-02-15T04:19:12.128Z,83.44
2019-02-15T04:20:12.099Z,83.44
2019-02-15T04:21:12.146Z,83.86
2019-02-15T04:22:12.105Z,83.80
2019-02-15T04:23:12.080Z,83.59
2019-02-15T04:24:13.571Z,84.11
2019-02-15T04:25:12.050Z,84.11
2019-02-15T04:26:12.075Z,84.22
2019-02-15T04:27:12.072Z,84.32
2019-02-15T04:28:12.033Z,84.11
2019-02-15T04:29:12.018Z,84.78
2019-02-15T04:30:11.988Z,85.09
2019-02-15T04:31:12.064Z,85.09
2019-02-15T04:32:11.998Z,84.99
2019-02-15T04:33:12.035Z,84.36
2019-02-15T04:34:11.963Z,84.36
2019-02-15T04:35:11.959Z,84.46
2019-02-15T04:36:11.971Z,84.99
2019-02-15T04:37:11.953Z,84.99
2019-02-15T04:38:11.968Z,85.72
2019-02-15T04:39:11.938Z,85.19
2019-02-15T04:40:11.934Z,85.61
2019-02-15T04:41:11.869Z,85.93
2019-02-15T04:42:11.905Z,86.77
2019-02-15T04:43:11.870Z,86.04
2019-02-15T04:44:11.987Z,86.55
2019-02-15T04:45:11.858Z,86.35
2019-02-15T04:46:11.825Z,87.08
2019-02-15T04:47:11.844Z,86.87
2019-02-15T04:48:13.722Z,87.81
2019-02-15T04:49:11.795Z,88.44
2019-02-15T04:50:11.778Z,87.29
2019-02-15T04:51:11.815Z,87.60
2019-02-15T04:52:11.758Z,87.81
2019-02-15T04:53:11.768Z,87.18
2019-02-15T04:54:11.766Z,87.08
2019-02-15T04:55:11.722Z,86.83
2019-02-15T04:56:11.727Z,86.83
2019-02-15T04:57:11.706Z,87.35
2019-02-15T04:58:11.722Z,87.56
2019-02-15T04:59:11.682Z,86.93
2019-02-15T05:00:11.668Z,87.15
2019-02-15T05:01:11.909Z,86.62
2019-02-15T05:02:11.652Z,86.27
2019-02-15T05:03:11.684Z,86.20
2019-02-15T05:04:11.633Z,86.37
2019-02-15T05:05:11.619Z,86.27
2019-02-15T05:06:11.623Z,86.27
2019-02-15T05:07:11.630Z,86.37
2019-02-15T05:08:11.604Z,86.44
2019-02-15T05:09:11.777Z,85.71
2019-02-15T05:10:11.578Z,86.44
2019-02-15T05:11:11.556Z,86.33
2019-02-15T05:12:11.551Z,86.13
2019-02-15T05:13:11.552Z,85.91
2019-02-15T05:14:11.692Z,86.02
2019-02-15T05:15:11.537Z,84.94
2019-02-15T05:16:14.214Z,84.31
2019-02-15T05:17:17.454Z,84.77
2019-02-15T05:18:23.715Z,84.66
2019-02-15T05:19:15.659Z,84.66
2019-02-15T05:20:17.062Z,84.66
2019-02-15T05:21:19.806Z,84.45
2019-02-15T05:22:14.705Z,84.66
2019-02-15T05:23:18.015Z,84.34
2019-02-15T05:24:34.814Z,84.45
2019-02-15T05:25:15.222Z,84.24
2019-02-15T05:26:25.562Z,84.56
2019-02-15T05:27:16.208Z,84.66
2019-02-15T05:28:19.697Z,84.56
2019-02-15T06:47:48.733Z,85.26
2019-02-15T06:48:48.625Z,85.05
2019-02-15T06:49:48.591Z,85.01
2019-02-15T06:50:48.550Z,85.74
2019-02-15T06:51:48.581Z,85.33
2019-02-15T06:52:48.435Z,85.96
2019-02-15T06:53:48.377Z,86.02
2019-02-15T06:54:48.371Z,85.12
2019-02-15T06:55:48.374Z,84.77
2019-02-15T06:56:48.406Z,84.77
2019-02-15T06:57:48.373Z,84.97
2019-02-15T06:58:48.363Z,84.97
2019-02-15T06:59:48.470Z,84.66
2019-02-15T07:00:48.446Z,84.66
2019-02-15T07:01:48.525Z,84.31
2019-02-15T07:02:48.468Z,84.41
2019-02-15T07:03:48.681Z,84.73
2019-02-15T07:04:48.850Z,84.10
2019-02-15T07:05:48.605Z,84.52
2019-02-15T07:06:48.515Z,84.52
2019-02-15T07:07:48.493Z,84.20
2019-02-15T07:08:48.440Z,84.73
2019-02-15T07:09:48.440Z,84.73
2019-02-15T07:10:48.409Z,84.52
2019-02-15T07:11:49.190Z,84.38
2019-02-15T07:12:48.574Z,84.52
2019-02-15T07:13:48.613Z,84.94
2019-02-15T07:14:48.576Z,85.00
2019-02-15T07:15:48.221Z,84.48
2019-02-15T07:16:48.155Z,84.38
2019-02-15T07:17:48.546Z,83.18
2019-02-15T07:18:48.343Z,84.38
2019-02-15T07:19:48.141Z,84.44
2019-02-15T07:20:48.213Z,84.38
2019-02-15T07:21:48.146Z,83.75
2019-02-15T07:22:48.323Z,84.38
2019-02-15T07:23:48.117Z,84.58
2019-02-15T07:24:48.155Z,83.95
2019-02-15T07:25:48.234Z,84.65
2019-02-15T07:26:48.054Z,84.06
2019-02-15T07:27:48.070Z,83.92
2019-02-15T07:28:48.092Z,84.75
2019-02-15T07:29:48.128Z,84.55
2019-02-15T07:30:48.099Z,84.75
2019-02-15T07:31:48.013Z,84.12
2019-02-15T07:32:48.068Z,84.44
2019-02-15T07:33:48.100Z,83.61
2019-02-15T07:34:47.996Z,84.55
2019-02-15T07:35:49.503Z,84.86
2019-02-15T07:36:48.387Z,84.44
2019-02-15T07:37:48.427Z,85.06
2019-02-15T07:38:48.012Z,84.96
2019-02-15T07:39:48.072Z,83.81
2019-02-15T07:40:48.823Z,84.12
2019-02-15T07:41:48.176Z,83.88
2019-02-15T07:42:48.037Z,83.29
2019-02-15T07:43:47.962Z,82.94
2019-02-15T07:44:48.054Z,82.73
2019-02-15T07:45:47.995Z,82.80
2019-02-15T07:46:48.096Z,82.90
2019-02-15T07:47:48.115Z,83.01
2019-02-15T07:48:48.392Z,82.38
2019-02-15T07:49:47.911Z,82.07
2019-02-15T07:50:48.040Z,82.03
2019-02-15T07:51:47.841Z,82.07
2019-02-15T07:52:47.783Z,81.51
2019-02-15T07:53:48.104Z,81.72
2019-02-15T07:54:48.034Z,81.20
2019-02-15T07:55:47.753Z,81.30
2019-02-15T07:56:47.763Z,81.30
2019-02-15T07:57:47.760Z,81.20
2019-02-15T07:58:47.824Z,81.62
2019-02-15T07:59:47.942Z,80.95
2019-02-15T08:00:47.777Z,80.85
2019-02-15T08:01:48.059Z,81.16
2019-02-15T08:02:47.768Z,81.26
2019-02-15T08:03:48.063Z,80.60
2019-02-15T08:04:48.020Z,79.87
2019-02-15T08:05:47.839Z,79.21
2019-02-15T08:06:48.283Z,78.90
2019-02-15T08:07:48.058Z,78.59
2019-02-15T08:08:47.937Z,78.69
2019-02-15T08:09:48.007Z,79.21
2019-02-15T08:10:47.634Z,79.17
2019-02-15T08:11:47.609Z,78.14
2019-02-15T08:12:47.688Z,78.14
2019-02-15T08:13:47.623Z,78.10
2019-02-15T08:14:47.614Z,77.69
2019-02-15T08:15:51.938Z,77.37
2019-02-15T08:16:47.550Z,76.61
2019-02-15T08:17:47.729Z,77.55
2019-02-15T08:18:47.552Z,77.65
2019-02-15T08:19:47.565Z,75.98
2019-02-15T08:20:47.570Z,76.09
2019-02-15T08:21:47.477Z,76.26
2019-02-15T08:22:47.529Z,77.30
2019-02-15T08:23:47.527Z,76.99
2019-02-15T08:24:47.523Z,76.47
2019-02-15T08:25:47.800Z,75.95
2019-02-15T08:26:47.581Z,75.40
2019-02-15T08:27:47.580Z,74.67
2019-02-15T08:28:47.415Z,75.60
2019-02-15T08:29:47.405Z,75.78
2019-02-15T08:30:47.788Z,75.57
2019-02-15T08:31:48.211Z,75.05
2019-02-15T08:32:47.365Z,75.67
2019-02-15T08:33:47.386Z,75.02
2019-02-15T08:34:47.394Z,74.40
2019-02-15T08:35:47.481Z,74.40
2019-02-15T08:36:47.474Z,73.63
2019-02-15T08:37:47.529Z,73.32
2019-02-15T08:38:47.350Z,73.22
2019-02-15T08:39:47.872Z,73.63
2019-02-15T08:40:48.885Z,73.53
2019-02-15T08:42:00.541Z,72.67
2019-02-15T08:42:49.650Z,71.91
2019-02-15T08:43:47.452Z,72.74
2019-02-15T08:44:47.491Z,72.32
2019-02-15T08:45:50.172Z,72.63
2019-02-15T08:46:48.098Z,71.77
2019-02-15T08:47:48.275Z,72.19
2019-02-15T08:48:47.778Z,70.60
2019-02-15T08:49:47.246Z,70.91
2019-02-15T08:51:50.405Z,69.74
2019-02-15T08:52:51.259Z,69.71
2019-02-15T08:53:50.297Z,68.74
2019-02-15T08:54:50.504Z,68.67
2019-02-15T08:55:47.782Z,68.64
2019-02-15T08:56:47.714Z,68.33
2019-02-15T08:57:47.251Z,68.95
2019-02-15T08:58:47.387Z,68.43
2019-02-15T08:59:47.072Z,68.82
2019-02-15T09:00:48.392Z,67.58
2019-02-15T09:01:47.594Z,67.44
2019-02-15T09:02:47.258Z,67.13
2019-02-15T09:03:48.396Z,66.93
2019-02-15T09:04:48.119Z,67.03
2019-02-15T09:05:47.751Z,66.93
2019-02-15T09:06:50.190Z,66.48
2019-02-15T09:07:47.712Z,65.76
2019-02-15T09:08:48.205Z,65.45
2019-02-15T09:09:47.468Z,65.73
2019-02-15T09:10:48.639Z,66.14
2019-02-15T09:11:48.124Z,65.21
2019-02-15T09:12:47.727Z,64.87
2019-02-15T09:13:48.028Z,64.46
2019-02-15T09:14:49.099Z,64.67
2019-02-15T09:15:47.528Z,65.28
2019-02-15T09:16:48.720Z,65.15
2019-02-15T09:18:14.727Z,64.25
2019-02-15T09:18:47.450Z,63.50
2019-02-15T09:19:49.398Z,63.29
2019-02-15T09:20:48.073Z,62.06
2019-02-15T09:22:05.505Z,62.16
2019-02-15T09:23:09.968Z,61.31
2019-02-15T09:23:47.819Z,61.93
2019-02-15T09:24:48.084Z,63.27
2019-02-15T09:25:47.026Z,63.06
2019-02-15T09:26:48.027Z,63.13
2019-02-15T09:27:50.322Z,63.85
2019-02-15T09:28:46.939Z,61.90
2019-02-15T09:29:47.137Z,61.59
2019-02-15T13:21:27.095Z,45.46
2019-02-15T13:47:43.955Z,44.32
2019-02-15T13:48:15.732Z,43.91
2019-02-15T13:56:03.094Z,43.08
2019-02-15T13:56:32.874Z,42.47
2019-02-15T13:57:52.027Z,42.39
2019-02-15T13:58:40.201Z,42.90
2019-02-15T13:59:34.956Z,42.29
2019-02-15T14:00:35.610Z,41.48
2019-02-15T14:05:41.928Z,41.97
2019-02-15T14:06:38.533Z,43.49
2019-02-15T14:07:23.840Z,44.30
2019-02-15T14:08:26.454Z,42.98
2019-02-15T14:10:02.641Z,42.17
2019-02-15T14:10:24.778Z,45.82
2019-02-15T14:14:52.282Z,44.70
2019-02-15T14:15:25.502Z,43.38
2019-02-15T14:16:25.378Z,43.69
2019-02-15T14:17:25.229Z,42.68
2019-02-15T14:25:52.456Z,43.20
2019-02-15T14:26:56.498Z,43.99
2019-02-15T14:27:56.275Z,43.00
2019-02-15T14:34:29.576Z,43.00
2019-02-15T20:59:06.062Z,72.53
2019-02-15T21:00:13.538Z,72.64
2019-02-15T21:01:05.988Z,73.05
2019-02-15T21:02:14.405Z,73.57
2019-02-15T21:03:05.971Z,73.81
2019-02-15T21:04:14.857Z,73.57
2019-02-15T21:05:05.929Z,74.29
2019-02-15T21:06:14.637Z,73.57
2019-02-15T21:07:05.919Z,73.98
2019-02-15T21:08:13.499Z,74.60
2019-02-15T21:09:05.875Z,73.57
2019-02-15T21:10:05.938Z,74.50
2019-02-15T21:11:13.509Z,72.85
2019-02-15T21:12:05.853Z,72.94
2019-02-15T21:13:20.153Z,73.74
2019-02-15T21:14:06.875Z,71.98
2019-02-15T21:15:05.910Z,72.88
2019-02-15T21:16:13.400Z,71.53
2019-02-15T21:17:05.770Z,71.22
2019-02-15T21:19:15.630Z,71.30
2019-02-15T21:20:15.504Z,70.37
2019-02-15T21:21:23.130Z,69.95
2019-02-15T21:22:15.512Z,70.43
2019-02-15T21:23:23.077Z,69.71
2019-02-15T21:24:15.580Z,69.20
2019-02-15T21:25:23.047Z,69.20
2019-02-15T21:26:15.469Z,67.10
2019-02-15T21:27:23.064Z,67.10
2019-02-15T21:28:15.465Z,67.07
2019-02-15T21:29:15.394Z,68.10
2019-02-15T21:30:23.086Z,67.79
2019-02-15T21:31:15.417Z,68.30
2019-02-15T21:32:15.458Z,66.76
2019-02-15T21:33:24.037Z,66.66
2019-02-15T21:34:15.424Z,67.27
2019-02-15T21:35:22.964Z,66.45
2019-02-15T21:36:17.214Z,66.76
2019-02-15T21:37:15.852Z,67.07
2019-02-15T21:38:22.887Z,67.48
2019-02-15T21:39:15.359Z,66.97
2019-02-15T21:40:15.312Z,67.07
2019-02-15T21:41:15.281Z,66.86
2019-02-15T21:42:15.333Z,66.97
2019-02-15T21:43:15.240Z,66.86
2019-02-15T21:44:15.214Z,65.94
2019-02-15T21:45:15.234Z,65.80
2019-02-15T21:46:15.214Z,64.87
2019-02-15T21:47:15.196Z,65.18
2019-02-15T21:48:15.169Z,65.28
2019-02-15T21:49:15.172Z,65.39
2019-02-15T21:50:17.593Z,64.87
2019-02-15T21:51:15.138Z,65.59
2019-02-15T21:52:15.139Z,66.52
2019-02-15T21:53:15.133Z,66.73
2019-02-15T21:54:15.108Z,65.70
2019-02-15T21:55:15.133Z,67.07
2019-02-15T21:56:15.084Z,67.69
2019-02-15T21:57:15.075Z,66.97
2019-02-15T21:58:15.062Z,66.76
2019-02-15T21:59:15.064Z,66.24
2019-02-15T22:00:15.073Z,66.86
2019-02-15T22:01:15.033Z,66.55
2019-02-15T22:02:15.022Z,66.45
2019-02-15T22:03:15.011Z,66.45
2019-02-15T22:04:15.015Z,66.14
2019-02-15T22:05:15.029Z,66.35
2019-02-15T22:06:14.978Z,65.83
2019-02-15T22:07:14.968Z,66.45
2019-02-15T22:08:14.972Z,65.94
2019-02-15T22:09:14.952Z,66.04
2019-02-15T22:10:14.949Z,66.45
2019-02-15T22:11:14.949Z,66.14
2019-02-15T22:12:14.913Z,65.73
2019-02-15T22:13:14.919Z,65.94
2019-02-15T22:14:14.890Z,64.80
2019-02-15T22:15:14.879Z,66.66
2019-02-15T22:16:14.893Z,66.14
2019-02-15T22:17:14.912Z,65.31
2019-02-15T22:18:14.852Z,65.62
2019-02-15T22:19:14.846Z,65.73
2019-02-15T22:20:14.893Z,65.83
2019-02-15T22:21:14.821Z,65.31
2019-02-15T22:22:14.843Z,65.11
2019-02-15T22:23:14.815Z,64.90
2019-02-15T22:24:14.789Z,65.94
2019-02-15T22:25:14.803Z,64.90
2019-02-15T22:26:14.765Z,65.83
2019-02-15T22:27:14.763Z,66.14
2019-02-15T22:28:14.765Z,66.55
2019-02-15T22:29:14.740Z,67.17
2019-02-15T22:30:14.747Z,66.14
2019-02-15T22:31:14.741Z,67.07
2019-02-15T22:32:14.713Z,67.17
2019-02-15T22:33:14.695Z,66.69
2019-02-15T22:34:14.695Z,67.30
2019-02-15T22:35:14.702Z,66.79
2019-02-15T22:36:14.661Z,68.85
2019-02-15T22:37:14.653Z,67.10
2019-02-15T22:38:14.641Z,67.21
2019-02-15T22:39:14.630Z,66.79
2019-02-15T22:40:14.681Z,67.24
2019-02-15T22:41:14.606Z,66.93
2019-02-15T22:42:14.602Z,67.96
2019-02-15T22:43:14.583Z,68.48
2019-02-15T22:44:14.573Z,67.82
2019-02-15T22:45:14.564Z,68.37
2019-02-15T22:46:14.573Z,68.68
2019-02-15T22:47:14.544Z,69.71
2019-02-15T22:48:14.531Z,68.88
2019-02-15T22:49:14.550Z,68.48
2019-02-15T22:51:24.381Z,69.82
2019-02-15T22:52:24.309Z,69.74
2019-02-15T22:53:24.377Z,69.82
2019-02-15T22:54:31.855Z,69.74
2019-02-15T22:55:24.304Z,70.37
2019-02-15T22:56:24.328Z,70.16
2019-02-15T22:57:24.232Z,70.78
2019-02-15T22:58:24.237Z,69.64
2019-02-15T22:59:31.814Z,70.16
2019-02-15T23:00:24.238Z,70.09
2019-02-15T23:01:31.928Z,70.16
2019-02-15T23:02:24.234Z,69.64
2019-02-15T23:03:24.172Z,69.85
2019-02-15T23:04:31.794Z,69.78
2019-02-15T23:05:24.163Z,69.95
2019-02-15T23:06:24.333Z,68.51
2019-02-15T23:07:24.144Z,69.95
2019-02-15T23:08:24.157Z,69.74
2019-02-15T23:09:24.080Z,70.67
2019-02-15T23:10:24.070Z,69.88
2019-02-15T23:11:24.057Z,70.61
2019-02-15T23:12:24.121Z,70.26
2019-02-15T23:13:24.036Z,70.09
2019-02-15T23:14:24.027Z,70.29
2019-02-15T23:15:24.019Z,69.74
2019-02-15T23:16:34.371Z,69.67
2019-02-15T23:17:24.058Z,68.74
2019-02-15T23:18:32.924Z,69.26
2019-02-15T23:19:24.056Z,68.43
2019-02-15T23:20:24.121Z,68.54
2019-02-15T23:21:23.972Z,69.98
2019-02-15T23:22:23.990Z,69.88
2019-02-15T23:23:23.936Z,70.81
2019-02-15T23:24:23.916Z,70.50
2019-02-15T23:25:25.086Z,71.33
2019-02-15T23:26:23.915Z,71.22
2019-02-15T23:27:23.941Z,70.19
2019-02-15T23:28:23.907Z,69.98
2019-02-15T23:29:23.866Z,71.12
2019-02-15T23:30:23.871Z,71.22
2019-02-15T23:31:23.844Z,70.40
2019-02-15T23:32:23.834Z,71.33
2019-02-15T23:33:23.857Z,71.57
2019-02-15T23:34:23.823Z,72.08
2019-02-15T23:35:23.803Z,71.88
2019-02-15T23:36:23.785Z,71.47
2019-02-15T23:37:23.803Z,71.57
2019-02-15T23:38:23.797Z,71.88
2019-02-15T23:39:23.754Z,71.15
2019-02-15T23:40:23.781Z,71.08
2019-02-15T23:41:23.726Z,71.50
2019-02-15T23:42:23.721Z,71.39
2019-02-15T23:43:23.730Z,71.60
2019-02-15T23:44:23.694Z,71.22
2019-02-15T23:45:23.687Z,72.05
2019-02-15T23:46:23.691Z,72.05
2019-02-15T23:47:23.664Z,72.15
2019-02-15T23:48:23.671Z,72.19
2019-02-15T23:49:23.641Z,71.88
2019-02-15T23:58:50.335Z,73.36
2019-02-15T23:59:50.402Z,72.88
